Time;durP1;ratioP1;P1;durP2;ratioP2;P2;SDS_P1;SDS_P2;PMS_P1;PMS_P2;Temp;Humidity;BMP_temperature;BMP_pressure;BME280_temperature;BME280_humidity;BME280_pressure;Samples;Min_cycle;Max_cycle;Signal;HPM_P1;HPM_P2
2022/08/30 00:01:08;;;;;;;20.63;12.13;;;;;;;;;;6184632;23;20021;-69
2022/08/30 00:03:47;;;;;;;23.88;16.48;;;;;;;;;;6184634;23;20017;-69
2022/08/30 00:06:15;;;;;;;19.25;10.68;;;;;;;;;;6185052;23;20463;-69
2022/08/30 00:08:43;;;;;;;20.40;12.18;;;;;;;;;;6184435;23;20439;-69
2022/08/30 00:11:12;;;;;;;22.77;13.73;;;;;;;;;;6184476;23;20017;-69
2022/08/30 00:13:41;;;;;;;18.85;10.80;;;;;;;;;;6184718;23;20017;-69
2022/08/30 00:16:09;;;;;;;26.42;15.00;;;;;;;;;;6184941;23;20021;-69
2022/08/30 00:18:37;;;;;;;19.35;12.07;;;;;;;;;;6184608;23;20436;-69
2022/08/30 00:21:05;;;;;;;18.10;12.27;;;;;;;;;;6184690;23;20499;-69
2022/08/30 00:23:32;;;;;;;26.60;15.55;;;;;;;;;;6184478;23;20013;-70
2022/08/30 00:26:01;;;;;;;21.48;14.52;;;;;;;;;;6184764;23;20029;-69
2022/08/30 00:28:29;;;;;;;21.08;12.73;;;;;;;;;;6184340;23;20396;-69
2022/08/30 00:30:56;;;;;;;22.70;14.32;;;;;;;;;;6184586;23;20017;-69
2022/08/30 00:33:24;;;;;;;17.30;10.98;;;;;;;;;;6184370;23;20440;-69
2022/08/30 00:35:51;;;;;;;20.52;12.40;;;;;;;;;;6184483;23;20017;-69
2022/08/30 00:38:20;;;;;;;22.13;13.15;;;;;;;;;;6184848;23;20033;-71
2022/08/30 00:40:48;;;;;;;17.92;11.90;;;;;;;;;;6183429;23;20074;-68
2022/08/30 00:43:18;;;;;;;17.55;13.13;;;;;;;;;;6186127;23;20013;-68
2022/08/30 00:45:46;;;;;;;21.02;12.98;;;;;;;;;;6186274;23;20081;-68
2022/08/30 00:48:14;;;;;;;25.02;13.05;;;;;;;;;;6184851;23;20067;-68
2022/08/30 00:50:43;;;;;;;19.23;12.88;;;;;;;;;;6186522;23;20129;-68
2022/08/30 00:53:14;;;;;;;16.77;12.00;;;;;;;;;;6186566;23;20017;-68
2022/08/30 00:55:42;;;;;;;20.30;12.07;;;;;;;;;;6186123;23;20045;-68
2022/08/30 00:58:27;;;;;;;23.88;14.02;;;;;;;;;;6185992;23;20024;-68
2022/08/30 01:00:56;;;;;;;26.03;12.73;;;;;;;;;;6159621;23;20021;-68
2022/08/30 01:03:24;;;;;;;16.70;11.80;;;;;;;;;;6186134;23;20017;-68
2022/08/30 01:05:51;;;;;;;21.08;12.75;;;;;;;;;;6186050;23;20386;-68
2022/08/30 01:08:21;;;;;;;21.25;12.50;;;;;;;;;;6186306;23;20027;-68
2022/08/30 01:10:49;;;;;;;15.98;12.18;;;;;;;;;;6185745;23;20510;-68
2022/08/30 01:13:17;;;;;;;16.77;11.55;;;;;;;;;;6159591;23;20021;-68
2022/08/30 01:15:45;;;;;;;15.93;11.73;;;;;;;;;;6185824;23;20021;-68
2022/08/30 01:18:16;;;;;;;19.67;13.10;;;;;;;;;;6186060;23;20013;-68
2022/08/30 01:20:50;;;;;;;17.70;11.70;;;;;;;;;;6186192;23;20025;-68
2022/08/30 01:23:19;;;;;;;21.02;14.80;;;;;;;;;;6185966;23;20013;-68
2022/08/30 01:25:49;;;;;;;16.65;12.43;;;;;;;;;;6185642;23;20028;-69
2022/08/30 01:28:19;;;;;;;15.60;11.52;;;;;;;;;;6185706;23;20190;-69
2022/08/30 01:30:47;;;;;;;20.05;11.75;;;;;;;;;;6185788;23;20386;-69
2022/08/30 01:33:15;;;;;;;23.27;11.65;;;;;;;;;;6185631;23;20017;-69
2022/08/30 01:35:52;;;;;;;17.55;11.93;;;;;;;;;;6185815;23;20021;-69
2022/08/30 01:38:28;;;;;;;20.83;11.88;;;;;;;;;;6185822;23;20032;-69
2022/08/30 01:41:13;;;;;;;18.92;11.50;;;;;;;;;;6184352;23;20395;-69
2022/08/30 01:43:41;;;;;;;21.98;12.73;;;;;;;;;;6185725;23;20021;-69
2022/08/30 01:46:10;;;;;;;16.27;11.60;;;;;;;;;;6185559;23;20096;-69
2022/08/30 01:48:38;;;;;;;17.75;11.93;;;;;;;;;;6185802;23;20456;-69
2022/08/30 01:51:09;;;;;;;18.08;12.82;;;;;;;;;;6185423;23;20344;-69
2022/08/30 01:53:36;;;;;;;15.65;11.75;;;;;;;;;;6185641;23;20044;-68
2022/08/30 01:56:04;;;;;;;16.38;12.32;;;;;;;;;;6184253;23;20020;-68
2022/08/30 01:58:31;;;;;;;17.55;11.80;;;;;;;;;;6185394;23;20502;-68
2022/08/30 02:00:59;;;;;;;17.45;12.07;;;;;;;;;;6185645;23;20338;-68
2022/08/30 02:03:31;;;;;;;16.05;12.30;;;;;;;;;;6185505;23;20018;-68
2022/08/30 02:06:03;;;;;;;17.83;13.10;;;;;;;;;;6185852;23;20023;-68
2022/08/30 02:08:30;;;;;;;20.83;11.82;;;;;;;;;;6185312;23;20128;-68
2022/08/30 02:11:01;;;;;;;19.40;12.90;;;;;;;;;;6185344;23;20119;-68
2022/08/30 02:13:29;;;;;;;16.55;11.05;;;;;;;;;;6184031;23;20039;-68
2022/08/30 02:15:57;;;;;;;16.17;10.90;;;;;;;;;;6159357;23;20371;-68
2022/08/30 02:18:25;;;;;;;22.60;13.40;;;;;;;;;;6185365;23;20537;-68
2022/08/30 02:20:52;;;;;;;15.18;10.70;;;;;;;;;;6183727;23;20518;-69
2022/08/30 02:23:20;;;;;;;15.40;10.55;;;;;;;;;;6185341;23;20091;-69
2022/08/30 02:25:47;;;;;;;12.07;10.18;;;;;;;;;;6158978;23;20455;-69
2022/08/30 02:28:15;;;;;;;16.60;10.90;;;;;;;;;;6185172;23;20021;-68
2022/08/30 02:30:45;;;;;;;15.25;9.75;;;;;;;;;;6185188;23;20694;-70
2022/08/30 02:33:13;;;;;;;17.05;11.98;;;;;;;;;;6185148;23;20101;-68
2022/08/30 02:35:40;;;;;;;19.75;12.35;;;;;;;;;;6185021;23;20048;-68
2022/08/30 02:38:09;;;;;;;14.68;10.50;;;;;;;;;;6183437;23;20020;-68
2022/08/30 02:40:37;;;;;;;12.18;10.00;;;;;;;;;;6183959;23;20021;-67
2022/08/30 02:43:06;;;;;;;16.55;11.10;;;;;;;;;;6185174;23;20433;-68
2022/08/30 02:45:33;;;;;;;27.45;19.13;;;;;;;;;;6185170;23;20017;-68
2022/08/30 02:48:01;;;;;;;21.88;12.70;;;;;;;;;;6185186;23;20096;-68
2022/08/30 02:50:30;;;;;;;13.52;10.88;;;;;;;;;;6185089;23;20435;-68
2022/08/30 02:52:57;;;;;;;20.08;13.38;;;;;;;;;;6185526;23;20083;-68
2022/08/30 02:55:25;;;;;;;19.65;12.10;;;;;;;;;;6184929;23;20457;-68
2022/08/30 02:57:52;;;;;;;14.90;11.50;;;;;;;;;;6184930;23;20024;-68
2022/08/30 03:00:20;;;;;;;22.48;18.30;;;;;;;;;;6184966;23;20439;-68
2022/08/30 03:02:48;;;;;;;14.82;11.77;;;;;;;;;;6185059;23;20041;-68
2022/08/30 03:05:16;;;;;;;25.00;18.83;;;;;;;;;;6185168;23;20096;-68
2022/08/30 03:07:46;;;;;;;16.95;12.27;;;;;;;;;;6184942;23;20092;-68
2022/08/30 03:10:14;;;;;;;22.88;14.13;;;;;;;;;;6158604;23;20387;-69
2022/08/30 03:12:41;;;;;;;15.27;12.23;;;;;;;;;;6184774;23;20045;-69
2022/08/30 03:15:14;;;;;;;18.60;11.50;;;;;;;;;;6184890;23;20017;-69
2022/08/30 03:17:41;;;;;;;19.10;14.55;;;;;;;;;;6185192;23;20332;-69
2022/08/30 03:20:09;;;;;;;15.13;10.32;;;;;;;;;;6184971;23;20023;-69
2022/08/30 03:22:37;;;;;;;25.83;14.50;;;;;;;;;;6184751;23;20023;-69
2022/08/30 03:25:05;;;;;;;17.65;10.70;;;;;;;;;;6184909;23;20017;-69
2022/08/30 03:27:32;;;;;;;16.70;10.30;;;;;;;;;;6184638;23;20028;-69
2022/08/30 03:30:00;;;;;;;16.90;11.80;;;;;;;;;;6184880;23;20551;-70
2022/08/30 03:32:28;;;;;;;16.48;9.93;;;;;;;;;;6184760;23;20021;-69
2022/08/30 03:34:55;;;;;;;15.90;10.35;;;;;;;;;;6184774;23;20021;-69
2022/08/30 03:37:22;;;;;;;13.20;9.90;;;;;;;;;;6184705;23;20032;-69
2022/08/30 03:39:54;;;;;;;16.77;9.88;;;;;;;;;;6184944;23;20021;-69
2022/08/30 03:42:23;;;;;;;16.90;10.80;;;;;;;;;;6184796;23;20044;-69
2022/08/30 03:44:51;;;;;;;15.77;9.77;;;;;;;;;;6159135;23;20013;-69
2022/08/30 03:47:19;;;;;;;15.38;10.70;;;;;;;;;;6184651;23;20072;-69
2022/08/30 03:49:47;;;;;;;12.52;9.52;;;;;;;;;;6184737;23;20017;-69
2022/08/30 03:52:15;;;;;;;17.50;10.00;;;;;;;;;;6184428;23;20021;-72
2022/08/30 03:54:44;;;;;;;16.60;9.93;;;;;;;;;;6185186;23;20013;-70
2022/08/30 03:57:12;;;;;;;15.10;9.88;;;;;;;;;;6184335;23;20035;-68
2022/08/30 03:59:50;;;;;;;15.52;10.13;;;;;;;;;;6184548;23;20455;-69
2022/08/30 04:02:18;;;;;;;16.70;9.90;;;;;;;;;;6184876;23;20023;-68
2022/08/30 04:04:46;;;;;;;13.15;9.23;;;;;;;;;;6184615;23;20021;-69
2022/08/30 04:07:13;;;;;;;14.57;9.70;;;;;;;;;;6184604;23;20017;-69
2022/08/30 04:09:41;;;;;;;15.63;10.00;;;;;;;;;;6184615;23;20017;-70
2022/08/30 04:12:08;;;;;;;23.27;15.02;;;;;;;;;;6183157;23;20013;-69
2022/08/30 04:14:36;;;;;;;17.38;10.77;;;;;;;;;;6184335;23;20021;-70
2022/08/30 04:17:03;;;;;;;17.25;9.63;;;;;;;;;;6184391;23;20083;-69
2022/08/30 04:19:31;;;;;;;17.10;12.25;;;;;;;;;;6186450;23;20017;-69
2022/08/30 04:21:58;;;;;;;22.25;10.93;;;;;;;;;;6186517;23;20072;-69
2022/08/30 04:24:26;;;;;;;17.15;11.48;;;;;;;;;;6186248;23;20017;-70
2022/08/30 04:26:54;;;;;;;19.70;12.38;;;;;;;;;;6186190;23;20039;-69
2022/08/30 04:29:21;;;;;;;14.55;10.02;;;;;;;;;;6184612;23;20017;-69
2022/08/30 04:31:49;;;;;;;11.07;9.27;;;;;;;;;;6186439;23;20059;-69
2022/08/30 04:34:16;;;;;;;15.25;9.52;;;;;;;;;;6186355;23;20017;-69
2022/08/30 04:36:44;;;;;;;15.20;10.38;;;;;;;;;;6186192;23;20021;-69
2022/08/30 04:39:15;;;;;;;17.40;10.00;;;;;;;;;;6186104;23;20020;-70
2022/08/30 04:41:42;;;;;;;16.55;10.25;;;;;;;;;;6186226;23;20032;-69
2022/08/30 04:44:10;;;;;;;15.38;10.50;;;;;;;;;;6186372;23;20024;-69
2022/08/30 04:46:46;;;;;;;17.00;9.77;;;;;;;;;;6186384;23;20383;-70
2022/08/30 04:49:13;;;;;;;13.75;9.23;;;;;;;;;;6159911;23;20017;-69
2022/08/30 04:51:41;;;;;;;13.18;9.27;;;;;;;;;;6186600;23;20056;-70
2022/08/30 04:54:08;;;;;;;15.82;10.82;;;;;;;;;;6186101;23;20036;-69
2022/08/30 04:56:36;;;;;;;12.70;9.13;;;;;;;;;;6186056;23;20104;-69
2022/08/30 04:59:03;;;;;;;15.77;11.65;;;;;;;;;;6186156;23;20028;-70
2022/08/30 05:01:32;;;;;;;19.35;10.88;;;;;;;;;;6186607;23;20343;-70
2022/08/30 05:04:12;;;;;;;15.40;10.77;;;;;;;;;;6186081;23;20410;-70
2022/08/30 05:06:40;;;;;;;15.70;11.40;;;;;;;;;;6186276;23;20013;-70
2022/08/30 05:09:07;;;;;;;16.42;11.57;;;;;;;;;;6186160;23;20020;-70
2022/08/30 05:11:35;;;;;;;14.32;11.13;;;;;;;;;;6186066;23;20340;-70
2022/08/30 05:14:03;;;;;;;16.50;12.23;;;;;;;;;;6186108;23;20116;-70
2022/08/30 05:16:30;;;;;;;14.70;11.13;;;;;;;;;;6185996;23;20096;-70
2022/08/30 05:18:58;;;;;;;16.52;12.55;;;;;;;;;;6186465;23;20033;-70
2022/08/30 05:21:26;;;;;;;32.80;24.30;;;;;;;;;;6186005;23;20021;-70
2022/08/30 05:23:55;;;;;;;16.23;11.95;;;;;;;;;;6186260;23;20075;-71
2022/08/30 05:26:24;;;;;;;19.70;15.90;;;;;;;;;;6184400;23;20025;-71
2022/08/30 05:28:52;;;;;;;14.95;12.55;;;;;;;;;;6185827;23;20048;-71
2022/08/30 05:31:30;;;;;;;14.05;11.13;;;;;;;;;;6186070;23;20027;-70
2022/08/30 05:33:58;;;;;;;20.65;11.18;;;;;;;;;;6185680;23;20459;-70
2022/08/30 05:36:27;;;;;;;17.02;11.68;;;;;;;;;;6185767;23;20017;-70
2022/08/30 05:38:54;;;;;;;17.27;12.02;;;;;;;;;;6185793;23;20075;-71
2022/08/30 05:41:23;;;;;;;19.58;13.77;;;;;;;;;;6185846;23;20028;-70
2022/08/30 05:43:53;;;;;;;20.45;14.90;;;;;;;;;;6185814;23;20021;-70
2022/08/30 05:46:21;;;;;;;22.92;16.17;;;;;;;;;;6159753;23;20021;-71
2022/08/30 05:48:49;;;;;;;15.05;12.20;;;;;;;;;;6185676;23;20017;-71
2022/08/30 05:51:18;;;;;;;13.82;10.50;;;;;;;;;;6184162;23;20017;-71
2022/08/30 05:53:46;;;;;;;14.80;11.07;;;;;;;;;;6185500;23;20076;-71
2022/08/30 05:56:15;;;;;;;17.42;10.57;;;;;;;;;;6185489;23;20463;-70
2022/08/30 05:58:43;;;;;;;18.00;14.85;;;;;;;;;;6185475;23;20023;-71
2022/08/30 06:01:26;;;;;;;16.45;11.52;;;;;;;;;;6185602;23;20021;-71
2022/08/30 06:03:55;;;;;;;12.30;11.00;;;;;;;;;;6185510;23;20021;-71
2022/08/30 06:06:28;;;;;;;17.40;10.52;;;;;;;;;;6185515;23;20040;-71
2022/08/30 06:08:56;;;;;;;15.95;10.07;;;;;;;;;;6185562;23;20016;-70
2022/08/30 06:11:24;;;;;;;18.55;12.77;;;;;;;;;;6183996;23;20021;-71
2022/08/30 06:13:52;;;;;;;13.43;9.55;;;;;;;;;;6185437;23;20375;-71
2022/08/30 06:16:21;;;;;;;13.52;8.50;;;;;;;;;;6185281;23;20344;-70
2022/08/30 06:18:49;;;;;;;14.38;8.70;;;;;;;;;;6185465;23;20020;-71
2022/08/30 06:21:27;;;;;;;23.00;8.95;;;;;;;;;;6185174;23;20020;-71
2022/08/30 06:23:55;;;;;;;12.75;8.45;;;;;;;;;;6185297;23;20013;-70
2022/08/30 06:26:22;;;;;;;11.90;9.00;;;;;;;;;;6185035;23;20020;-70
2022/08/30 06:28:50;;;;;;;14.60;8.65;;;;;;;;;;6185399;23;20071;-71
2022/08/30 06:31:19;;;;;;;16.13;8.68;;;;;;;;;;6185331;23;20017;-71
2022/08/30 06:33:46;;;;;;;13.93;8.02;;;;;;;;;;6185402;23;20461;-72
2022/08/30 06:36:17;;;;;;;19.42;8.63;;;;;;;;;;6185090;23;20469;-71
2022/08/30 06:38:45;;;;;;;13.73;8.70;;;;;;;;;;6185292;23;20087;-71
2022/08/30 06:41:15;;;;;;;15.93;9.10;;;;;;;;;;6158850;23;20079;-71
2022/08/30 06:43:43;;;;;;;11.73;8.25;;;;;;;;;;6185181;23;20340;-71
2022/08/30 06:46:20;;;;;;;17.77;8.95;;;;;;;;;;6185285;23;20017;-70
2022/08/30 06:48:48;;;;;;;15.70;8.52;;;;;;;;;;6183789;23;20016;-70
2022/08/30 06:51:19;;;;;;;21.27;10.32;;;;;;;;;;6185273;23;20017;-71
2022/08/30 06:53:47;;;;;;;13.25;8.10;;;;;;;;;;6185332;23;20419;-71
2022/08/30 06:56:15;;;;;;;19.73;12.23;;;;;;;;;;6185138;23;20017;-70
2022/08/30 06:58:43;;;;;;;18.30;8.45;;;;;;;;;;6185466;23;20013;-70
2022/08/30 07:01:12;;;;;;;21.55;10.80;;;;;;;;;;6183772;23;20165;-70
2022/08/30 07:03:39;;;;;;;23.58;10.15;;;;;;;;;;6185215;23;20017;-70
2022/08/30 07:06:07;;;;;;;14.10;7.45;;;;;;;;;;6185290;23;20056;-70
2022/08/30 07:08:35;;;;;;;15.25;7.90;;;;;;;;;;6183551;23;20021;-70
2022/08/30 07:11:04;;;;;;;15.07;7.88;;;;;;;;;;6185075;23;20013;-71
2022/08/30 07:13:32;;;;;;;17.33;8.60;;;;;;;;;;6184984;23;20296;-71
2022/08/30 07:16:00;;;;;;;22.42;8.45;;;;;;;;;;6184897;23;20017;-70
2022/08/30 07:21:14;;;;;;;20.15;8.27;;;;;;;;;;6183485;23;20017;-71
2022/08/30 07:23:42;;;;;;;17.52;8.35;;;;;;;;;;6184945;23;20096;-71
2022/08/30 07:26:11;;;;;;;16.15;8.48;;;;;;;;;;6158264;23;20024;-71
2022/08/30 07:28:40;;;;;;;24.60;8.48;;;;;;;;;;6184937;23;20017;-71
2022/08/30 07:31:08;;;;;;;18.23;8.23;;;;;;;;;;6185899;23;20017;-70
2022/08/30 07:33:36;;;;;;;16.27;7.95;;;;;;;;;;6186800;23;20096;-70
2022/08/30 07:36:06;;;;;;;16.48;10.32;;;;;;;;;;6186165;23;20076;-71
2022/08/30 07:38:35;;;;;;;15.68;7.95;;;;;;;;;;6185878;23;20025;-71
2022/08/30 07:41:03;;;;;;;21.98;8.15;;;;;;;;;;6159752;23;20045;-70
2022/08/30 07:43:34;;;;;;;14.35;8.25;;;;;;;;;;6186927;23;20503;-70
2022/08/30 07:46:03;;;;;;;17.88;7.97;;;;;;;;;;6183952;23;20469;-70
2022/08/30 07:48:31;;;;;;;17.30;8.07;;;;;;;;;;6185189;23;20067;-70
2022/08/30 07:51:01;;;;;;;14.75;7.55;;;;;;;;;;6187078;23;20372;-70
2022/08/30 07:53:31;;;;;;;18.95;8.02;;;;;;;;;;6186989;23;20021;-70
2022/08/30 07:55:59;;;;;;;19.38;8.43;;;;;;;;;;6186921;23;20017;-70
2022/08/30 07:58:31;;;;;;;17.95;8.02;;;;;;;;;;6186991;23;20383;-70
2022/08/30 08:00:58;;;;;;;15.40;8.18;;;;;;;;;;6187124;23;20084;-71
2022/08/30 08:03:26;;;;;;;18.73;8.18;;;;;;;;;;6186439;23;20522;-71
2022/08/30 08:05:54;;;;;;;20.38;8.38;;;;;;;;;;6186426;23;20024;-71
2022/08/30 08:08:22;;;;;;;25.52;8.77;;;;;;;;;;6186447;23;20320;-71
2022/08/30 08:10:50;;;;;;;23.27;11.00;;;;;;;;;;6186397;23;20041;-71
2022/08/30 08:13:17;;;;;;;18.52;10.77;;;;;;;;;;6186492;23;20017;-71
2022/08/30 08:15:47;;;;;;;13.75;8.82;;;;;;;;;;6186861;23;20071;-71
2022/08/30 08:18:14;;;;;;;24.60;14.27;;;;;;;;;;6186491;23;20029;-71
2022/08/30 08:20:42;;;;;;;20.02;12.57;;;;;;;;;;6186581;23;20023;-71
2022/08/30 08:23:10;;;;;;;24.33;11.65;;;;;;;;;;6186844;23;20136;-71
2022/08/30 08:25:38;;;;;;;17.02;9.13;;;;;;;;;;6187078;23;20047;-70
2022/08/30 08:28:06;;;;;;;18.23;9.27;;;;;;;;;;6186399;23;20097;-71
2022/08/30 08:30:35;;;;;;;16.48;8.75;;;;;;;;;;6186539;23;20453;-71
2022/08/30 08:33:03;;;;;;;15.00;9.52;;;;;;;;;;6186365;23;20016;-71
2022/08/30 08:35:31;;;;;;;23.10;10.98;;;;;;;;;;6186274;23;20036;-70
2022/08/30 08:37:58;;;;;;;21.40;10.07;;;;;;;;;;6185047;23;20028;-70
2022/08/30 08:40:26;;;;;;;17.20;8.15;;;;;;;;;;6160394;23;20389;-71
2022/08/30 08:43:01;;;;;;;17.63;8.40;;;;;;;;;;6185295;23;20029;-70
2022/08/30 08:45:31;;;;;;;18.35;8.25;;;;;;;;;;6160013;23;20021;-70
2022/08/30 08:48:19;;;;;;;21.08;8.05;;;;;;;;;;6186475;23;20013;-70
2022/08/30 08:53:37;;;;;;;14.90;8.07;;;;;;;;;;6186840;23;20049;-70
2022/08/30 08:56:16;;;;;;;17.02;7.97;;;;;;;;;;6187225;23;20017;-70
2022/08/30 08:58:45;;;;;;;17.10;7.43;;;;;;;;;;6162247;23;20463;-70
2022/08/30 09:01:16;;;;;;;16.30;7.65;;;;;;;;;;6188157;23;20068;-70
2022/08/30 09:03:46;;;;;;;27.55;15.30;;;;;;;;;;6187354;23;20024;-71
2022/08/30 09:06:17;;;;;;;16.08;9.27;;;;;;;;;;6162778;23;20016;-70
2022/08/30 09:08:45;;;;;;;23.20;7.93;;;;;;;;;;6191066;23;20021;-69
2022/08/30 09:11:20;;;;;;;17.98;8.25;;;;;;;;;;6186470;23;20021;-70
2022/08/30 09:13:53;;;;;;;19.08;7.20;;;;;;;;;;6186795;23;20075;-70
2022/08/30 09:16:39;;;;;;;13.98;7.45;;;;;;;;;;6187996;23;20358;-70
2022/08/30 09:19:07;;;;;;;15.85;7.60;;;;;;;;;;6187007;23;20009;-70
2022/08/30 09:21:34;;;;;;;15.55;7.75;;;;;;;;;;6185124;23;20096;-69
2022/08/30 09:24:03;;;;;;;18.15;7.45;;;;;;;;;;6162322;23;20448;-70
2022/08/30 09:26:38;;;;;;;18.77;7.35;;;;;;;;;;6189409;23;20092;-70
2022/08/30 09:29:16;;;;;;;19.30;8.98;;;;;;;;;;6159726;23;20478;-71
2022/08/30 09:31:52;;;;;;;20.38;11.57;;;;;;;;;;6185983;23;20037;-69
2022/08/30 09:34:42;;;;;;;20.13;7.10;;;;;;;;;;6186369;23;20021;-71
2022/08/30 09:37:22;;;;;;;19.33;7.35;;;;;;;;;;6185767;23;20021;-70
2022/08/30 09:39:50;;;;;;;13.05;6.85;;;;;;;;;;6186064;23;20017;-69
2022/08/30 09:42:22;;;;;;;18.13;6.72;;;;;;;;;;6159434;23;20025;-71
2022/08/30 09:44:50;;;;;;;18.58;6.38;;;;;;;;;;6185746;23;20064;-70
2022/08/30 09:47:19;;;;;;;17.20;6.60;;;;;;;;;;6159496;23;20023;-71
2022/08/30 09:50:01;;;;;;;13.75;6.90;;;;;;;;;;6186083;23;20017;-70
2022/08/30 09:52:34;;;;;;;11.60;6.78;;;;;;;;;;6159541;23;20017;-71
2022/08/30 09:55:08;;;;;;;10.30;6.10;;;;;;;;;;6185940;23;20067;-71
2022/08/30 09:57:47;;;;;;;18.88;6.03;;;;;;;;;;6185670;23;20021;-70
2022/08/30 10:00:20;;;;;;;19.45;6.22;;;;;;;;;;6185864;23;20344;-71
2022/08/30 10:02:56;;;;;;;19.98;6.88;;;;;;;;;;6185312;23;20017;-70
2022/08/30 10:05:30;;;;;;;16.50;6.38;;;;;;;;;;6185593;23;20108;-71
2022/08/30 10:08:10;;;;;;;11.85;6.18;;;;;;;;;;6185627;23;20027;-71
2022/08/30 10:10:52;;;;;;;20.90;6.50;;;;;;;;;;6185665;23;20395;-70
2022/08/30 10:13:35;;;;;;;20.27;6.75;;;;;;;;;;6185811;23;20017;-71
2022/08/30 10:16:18;;;;;;;16.13;5.78;;;;;;;;;;6185704;23;20020;-71
2022/08/30 10:18:53;;;;;;;14.90;5.55;;;;;;;;;;6185445;23;20028;-71
2022/08/30 10:21:31;;;;;;;11.05;5.47;;;;;;;;;;6184159;23;20330;-70
2022/08/30 10:24:04;;;;;;;17.80;6.22;;;;;;;;;;6185867;23;20023;-71
2022/08/30 10:26:41;;;;;;;18.42;5.68;;;;;;;;;;6185216;23;20067;-70
2022/08/30 10:29:14;;;;;;;14.65;5.82;;;;;;;;;;6185797;23;20013;-72
2022/08/30 10:31:51;;;;;;;15.82;5.53;;;;;;;;;;6185713;23;20028;-71
2022/08/30 10:34:25;;;;;;;14.10;5.78;;;;;;;;;;6183903;23;20071;-71
2022/08/30 10:36:56;;;;;;;15.63;6.20;;;;;;;;;;6185268;23;20140;-71
2022/08/30 10:39:26;;;;;;;17.50;5.30;;;;;;;;;;6185249;23;20088;-71
2022/08/30 10:42:06;;;;;;;12.52;7.18;;;;;;;;;;6160671;23;20354;-72
2022/08/30 10:44:39;;;;;;;16.33;5.97;;;;;;;;;;6185294;23;20013;-69
2022/08/30 10:47:19;;;;;;;17.58;5.68;;;;;;;;;;6158823;23;20013;-71
2022/08/30 10:49:53;;;;;;;15.60;5.97;;;;;;;;;;6185188;23;20027;-71
2022/08/30 10:52:23;;;;;;;11.23;5.50;;;;;;;;;;6159614;23;20024;-71
2022/08/30 10:55:14;;;;;;;16.10;6.22;;;;;;;;;;6185059;23;20459;-71
2022/08/30 10:57:44;;;;;;;14.82;5.93;;;;;;;;;;6185049;23;20028;-70
2022/08/30 11:00:13;;;;;;;13.88;6.03;;;;;;;;;;6185297;23;20343;-71
2022/08/30 11:02:59;;;;;;;18.38;5.90;;;;;;;;;;6158708;23;20344;-70
2022/08/30 11:05:46;;;;;;;15.65;5.72;;;;;;;;;;6158545;23;20013;-70
2022/08/30 11:08:16;;;;;;;17.45;6.28;;;;;;;;;;6185107;23;20013;-71
2022/08/30 11:10:50;;;;;;;14.27;6.53;;;;;;;;;;6184792;23;20013;-71
2022/08/30 11:13:22;;;;;;;14.73;5.68;;;;;;;;;;6158692;23;20017;-71
2022/08/30 11:15:58;;;;;;;15.73;5.63;;;;;;;;;;6185312;23;20013;-70
2022/08/30 11:18:29;;;;;;;13.77;5.65;;;;;;;;;;6185427;23;20067;-70
2022/08/30 11:21:16;;;;;;;13.77;5.90;;;;;;;;;;6184973;23;20021;-70
2022/08/30 11:24:01;;;;;;;15.40;5.20;;;;;;;;;;6184842;23;20017;-70
2022/08/30 11:26:47;;;;;;;10.18;4.88;;;;;;;;;;6184664;23;20396;-70
2022/08/30 11:29:33;;;;;;;15.70;6.90;;;;;;;;;;6185182;23;20519;-70
2022/08/30 11:32:14;;;;;;;10.95;4.68;;;;;;;;;;6184834;23;20059;-70
2022/08/30 11:34:45;;;;;;;12.20;4.90;;;;;;;;;;6184891;23;20017;-71
2022/08/30 11:37:14;;;;;;;12.65;4.75;;;;;;;;;;6184929;23;20017;-71
2022/08/30 11:39:48;;;;;;;15.40;5.05;;;;;;;;;;6185284;23;20364;-70
2022/08/30 11:42:28;;;;;;;13.85;5.68;;;;;;;;;;6185208;23;20027;-72
2022/08/30 11:45:15;;;;;;;11.32;4.93;;;;;;;;;;6185528;23;20021;-71
2022/08/30 11:47:46;;;;;;;11.18;4.75;;;;;;;;;;6184044;23;20399;-72
2022/08/30 11:50:16;;;;;;;17.25;5.05;;;;;;;;;;6184846;23;20047;-71
2022/08/30 11:53:04;;;;;;;16.15;5.05;;;;;;;;;;6184809;23;20017;-73
2022/08/30 11:55:47;;;;;;;16.17;5.25;;;;;;;;;;6183687;23;20044;-70
2022/08/30 11:58:34;;;;;;;12.75;4.93;;;;;;;;;;6184820;23;20450;-70
2022/08/30 12:01:20;;;;;;;16.73;5.40;;;;;;;;;;6184763;23;20443;-71
2022/08/30 12:04:12;;;;;;;13.77;4.90;;;;;;;;;;6184807;23;20017;-70
2022/08/30 12:06:41;;;;;;;13.30;5.10;;;;;;;;;;6185064;23;20462;-70
2022/08/30 12:09:11;;;;;;;16.02;4.90;;;;;;;;;;6184808;23;20044;-70
2022/08/30 12:11:44;;;;;;;13.07;5.13;;;;;;;;;;6184612;23;20021;-71
2022/08/30 12:14:32;;;;;;;10.38;4.15;;;;;;;;;;6185126;23;20440;-71
2022/08/30 12:19:49;;;;;;;8.43;4.65;;;;;;;;;;6184728;23;20431;-70
2022/08/30 12:22:17;;;;;;;10.38;4.20;;;;;;;;;;6158215;23;20673;-71
2022/08/30 12:24:48;;;;;;;11.75;4.90;;;;;;;;;;6184841;23;20014;-70
2022/08/30 12:27:30;;;;;;;10.48;4.80;;;;;;;;;;6184369;23;20024;-70
2022/08/30 12:30:05;;;;;;;12.48;6.75;;;;;;;;;;6184505;23;20017;-70
2022/08/30 12:32:34;;;;;;;12.23;5.32;;;;;;;;;;6184823;23;20441;-70
2022/08/30 12:35:06;;;;;;;14.23;5.03;;;;;;;;;;6184516;23;20024;-70
2022/08/30 12:37:38;;;;;;;14.25;5.70;;;;;;;;;;6185429;23;20309;-71
2022/08/30 12:40:11;;;;;;;14.18;7.13;;;;;;;;;;6186149;23;20028;-71
2022/08/30 12:42:49;;;;;;;15.70;5.82;;;;;;;;;;6186227;23;20017;-71
2022/08/30 12:45:22;;;;;;;12.90;4.82;;;;;;;;;;6159943;23;20033;-71
2022/08/30 12:48:02;;;;;;;15.70;5.97;;;;;;;;;;6185108;23;20055;-71
2022/08/30 12:50:37;;;;;;;14.48;4.78;;;;;;;;;;6186307;23;20035;-71
2022/08/30 12:53:10;;;;;;;8.88;4.47;;;;;;;;;;6186378;23;20021;-69
2022/08/30 12:55:54;;;;;;;13.98;5.07;;;;;;;;;;6185375;23;20017;-69
2022/08/30 12:58:53;;;;;;;15.55;5.32;;;;;;;;;;6183246;23;20096;-70
2022/08/30 13:01:27;;;;;;;7.15;4.57;;;;;;;;;;6166706;23;20017;-70
2022/08/30 13:03:56;;;;;;;9.52;5.05;;;;;;;;;;6186034;23;20021;-70
2022/08/30 13:06:37;;;;;;;12.32;5.10;;;;;;;;;;6185479;23;20024;-70
2022/08/30 13:09:05;;;;;;;18.25;5.00;;;;;;;;;;6185401;23;20028;-70
2022/08/30 13:11:33;;;;;;;11.68;5.10;;;;;;;;;;6185645;23;20489;-70
2022/08/30 13:14:19;;;;;;;12.55;5.32;;;;;;;;;;6184524;23;20323;-70
2022/08/30 13:16:47;;;;;;;13.25;5.15;;;;;;;;;;6159300;23;20392;-70
2022/08/30 13:19:33;;;;;;;13.07;4.95;;;;;;;;;;6185271;23;20017;-70
2022/08/30 13:22:03;;;;;;;13.90;5.60;;;;;;;;;;6185744;23;20020;-70
2022/08/30 13:24:49;;;;;;;16.10;5.18;;;;;;;;;;6186563;23;20363;-69
2022/08/30 13:27:19;;;;;;;15.88;6.00;;;;;;;;;;6185863;23;20479;-69
2022/08/30 13:29:48;;;;;;;11.88;4.90;;;;;;;;;;6185398;23;20104;-70
2022/08/30 13:32:16;;;;;;;17.42;5.78;;;;;;;;;;6184439;23;20088;-70
2022/08/30 13:34:47;;;;;;;11.80;4.68;;;;;;;;;;6185594;23;20027;-70
2022/08/30 13:37:17;;;;;;;13.57;5.18;;;;;;;;;;6185534;23;20064;-70
2022/08/30 13:40:05;;;;;;;9.70;4.40;;;;;;;;;;6158573;23;20021;-70
2022/08/30 13:42:35;;;;;;;13.60;4.60;;;;;;;;;;6185385;23;20025;-69
2022/08/30 13:45:03;;;;;;;12.38;4.60;;;;;;;;;;6186527;23;20027;-70
2022/08/30 13:47:31;;;;;;;14.18;4.45;;;;;;;;;;6185034;23;20018;-70
2022/08/30 13:50:01;;;;;;;12.27;4.60;;;;;;;;;;6185985;23;20439;-71
2022/08/30 13:52:29;;;;;;;12.75;4.25;;;;;;;;;;6185591;23;20091;-70
2022/08/30 13:54:57;;;;;;;8.75;4.50;;;;;;;;;;6185830;23;20013;-71
2022/08/30 13:57:25;;;;;;;9.40;3.67;;;;;;;;;;6185249;23;20009;-70
2022/08/30 14:00:16;;;;;;;10.75;4.50;;;;;;;;;;6185185;23;20024;-70
2022/08/30 14:02:45;;;;;;;11.02;4.70;;;;;;;;;;6185455;23;20329;-70
2022/08/30 14:05:22;;;;;;;14.52;6.40;;;;;;;;;;6185231;23;20088;-70
2022/08/30 14:08:11;;;;;;;16.98;4.68;;;;;;;;;;6185305;23;20498;-71
2022/08/30 14:10:59;;;;;;;11.48;4.80;;;;;;;;;;6184963;23;20017;-70
2022/08/30 14:13:27;;;;;;;12.30;4.65;;;;;;;;;;6183528;23;20017;-70
2022/08/30 14:15:56;;;;;;;12.18;5.00;;;;;;;;;;6185510;23;20040;-70
2022/08/30 14:18:44;;;;;;;13.10;4.85;;;;;;;;;;6183275;23;20017;-70
2022/08/30 14:21:11;;;;;;;14.73;6.22;;;;;;;;;;6183675;23;20021;-70
2022/08/30 14:23:39;;;;;;;12.40;4.95;;;;;;;;;;6184175;23;20075;-70
2022/08/30 14:26:13;;;;;;;10.10;4.72;;;;;;;;;;6184742;23;20024;-71
2022/08/30 14:28:44;;;;;;;14.90;5.40;;;;;;;;;;6185207;23;20027;-71
2022/08/30 14:31:11;;;;;;;17.13;5.00;;;;;;;;;;6185763;23;20024;-71
2022/08/30 14:33:39;;;;;;;14.23;4.70;;;;;;;;;;6185313;23;20021;-70
2022/08/30 14:36:07;;;;;;;12.95;5.13;;;;;;;;;;6185353;23;20088;-70
2022/08/30 14:38:42;;;;;;;14.05;6.47;;;;;;;;;;6184831;23;20024;-70
2022/08/30 14:41:14;;;;;;;15.95;5.53;;;;;;;;;;6183034;23;20017;-70
2022/08/30 14:43:41;;;;;;;14.45;5.53;;;;;;;;;;6184206;23;20039;-71
2022/08/30 14:46:09;;;;;;;20.10;7.82;;;;;;;;;;6184529;23;20045;-70
2022/08/30 14:48:38;;;;;;;16.27;9.38;;;;;;;;;;6184485;23;20024;-70
2022/08/30 14:51:15;;;;;;;13.75;6.50;;;;;;;;;;6184817;23;20459;-71
2022/08/30 14:53:43;;;;;;;15.88;9.88;;;;;;;;;;6184799;23;20017;-71
2022/08/30 14:56:12;;;;;;;18.00;8.70;;;;;;;;;;6185220;23;20028;-71
2022/08/30 14:58:39;;;;;;;10.95;6.30;;;;;;;;;;6184951;23;20017;-71